sensor_id;sensor_type;location;lat;lon;timestamp;temperature;humidity
23629;DHT22;11991;57.150;-2.134;2024-02-14T00:01:07;3.50;99.90
23629;DHT22;11991;57.150;-2.134;2024-02-14T00:03:36;3.40;99.90
23629;DHT22;11991;57.150;-2.134;2024-02-14T00:06:05;3.30;99.90
23629;DHT22;11991;57.150;-2.134;2024-02-14T00:08:33;3.20;99.90
23629;DHT22;11991;57.150;-2.134;2024-02-14T00:11:00;3.10;99.90
23629;DHT22;11991;57.150;-2.134;2024-02-14T00:13:29;3.10;99.90
23629;DHT22;11991;57.150;-2.134;2024-02-14T00:15:56;3.10;99.90
23629;DHT22;11991;57.150;-2.134;2024-02-14T00:18:23;3.10;99.90
23629;DHT22;11991;57.150;-2.134;2024-02-14T00:20:51;3.10;99.90
23629;DHT22;11991;57.150;-2.134;2024-02-14T00:23:18;3.10;99.90
23629;DHT22;11991;57.150;-2.134;2024-02-14T00:25:45;3.10;99.90
23629;DHT22;11991;57.150;-2.134;2024-02-14T00:28:12;3.20;99.90
23629;DHT22;11991;57.150;-2.134;2024-02-14T00:30:39;3.20;99.90
23629;DHT22;11991;57.150;-2.134;2024-02-14T00:33:07;3.20;99.90
23629;DHT22;11991;57.150;-2.134;2024-02-14T00:35:34;3.20;99.90
23629;DHT22;11991;57.150;-2.134;2024-02-14T00:38:02;3.20;99.90
23629;DHT22;11991;57.150;-2.134;2024-02-14T00:40:29;3.20;99.90
23629;DHT22;11991;57.150;-2.134;2024-02-14T00:42:56;3.30;99.90
23629;DHT22;11991;57.150;-2.134;2024-02-14T00:45:23;3.40;99.90
23629;DHT22;11991;57.150;-2.134;2024-02-14T00:47:51;3.40;99.90
23629;DHT22;11991;57.150;-2.134;2024-02-14T00:50:18;3.40;99.90
23629;DHT22;11991;57.150;-2.134;2024-02-14T00:52:46;3.50;99.90
23629;DHT22;11991;57.150;-2.134;2024-02-14T00:55:13;3.50;99.90
23629;DHT22;11991;57.150;-2.134;2024-02-14T00:57:40;3.50;99.90
23629;DHT22;11991;57.150;-2.134;2024-02-14T01:00:07;3.50;99.90
23629;DHT22;11991;57.150;-2.134;2024-02-14T01:02:36;3.50;99.90
23629;DHT22;11991;57.150;-2.134;2024-02-14T01:05:03;3.60;99.90
23629;DHT22;11991;57.150;-2.134;2024-02-14T01:07:31;3.60;99.90
23629;DHT22;11991;57.150;-2.134;2024-02-14T01:09:59;3.50;99.90
23629;DHT22;11991;57.150;-2.134;2024-02-14T01:12:26;3.50;99.90
23629;DHT22;11991;57.150;-2.134;2024-02-14T01:14:53;3.60;99.90
23629;DHT22;11991;57.150;-2.134;2024-02-14T01:17:21;3.60;99.90
23629;DHT22;11991;57.150;-2.134;2024-02-14T01:19:48;3.60;99.90
23629;DHT22;11991;57.150;-2.134;2024-02-14T01:22:16;3.60;99.90
23629;DHT22;11991;57.150;-2.134;2024-02-14T01:24:43;3.60;99.90
23629;DHT22;11991;57.150;-2.134;2024-02-14T01:27:11;3.60;99.90
23629;DHT22;11991;57.150;-2.134;2024-02-14T01:29:38;3.60;99.90
23629;DHT22;11991;57.150;-2.134;2024-02-14T01:32:05;3.60;99.90
23629;DHT22;11991;57.150;-2.134;2024-02-14T01:34:33;3.60;99.90
23629;DHT22;11991;57.150;-2.134;2024-02-14T01:37:01;3.70;99.90
23629;DHT22;11991;57.150;-2.134;2024-02-14T01:39:28;3.70;99.90
23629;DHT22;11991;57.150;-2.134;2024-02-14T01:41:55;3.80;99.90
23629;DHT22;11991;57.150;-2.134;2024-02-14T01:44:22;3.80;99.90
23629;DHT22;11991;57.150;-2.134;2024-02-14T01:46:50;3.80;99.90
23629;DHT22;11991;57.150;-2.134;2024-02-14T01:49:19;3.90;99.90
23629;DHT22;11991;57.150;-2.134;2024-02-14T01:51:47;3.90;99.90
23629;DHT22;11991;57.150;-2.134;2024-02-14T01:54:15;4.00;99.90
23629;DHT22;11991;57.150;-2.134;2024-02-14T01:56:45;4.00;99.90
23629;DHT22;11991;57.150;-2.134;2024-02-14T01:59:13;4.00;99.90
23629;DHT22;11991;57.150;-2.134;2024-02-14T02:01:42;4.00;99.90
23629;DHT22;11991;57.150;-2.134;2024-02-14T02:04:10;4.10;99.90
23629;DHT22;11991;57.150;-2.134;2024-02-14T02:06:38;4.10;99.90
23629;DHT22;11991;57.150;-2.134;2024-02-14T02:09:08;4.10;99.90
23629;DHT22;11991;57.150;-2.134;2024-02-14T02:11:52;4.10;99.90
23629;DHT22;11991;57.150;-2.134;2024-02-14T02:14:23;4.00;99.90
23629;DHT22;11991;57.150;-2.134;2024-02-14T02:16:50;4.00;99.90
23629;DHT22;11991;57.150;-2.134;2024-02-14T02:19:19;4.00;99.90
23629;DHT22;11991;57.150;-2.134;2024-02-14T02:21:46;4.00;99.90
23629;DHT22;11991;57.150;-2.134;2024-02-14T02:24:14;4.00;99.90
23629;DHT22;11991;57.150;-2.134;2024-02-14T02:26:41;4.00;99.90
23629;DHT22;11991;57.150;-2.134;2024-02-14T02:29:08;3.90;99.90
23629;DHT22;11991;57.150;-2.134;2024-02-14T02:31:35;3.90;99.90
23629;DHT22;11991;57.150;-2.134;2024-02-14T02:34:04;3.80;99.90
23629;DHT22;11991;57.150;-2.134;2024-02-14T02:36:32;3.90;99.90
23629;DHT22;11991;57.150;-2.134;2024-02-14T02:39:00;3.90;99.90
23629;DHT22;11991;57.150;-2.134;2024-02-14T02:41:27;3.80;99.90
23629;DHT22;11991;57.150;-2.134;2024-02-14T02:43:55;3.80;99.90
23629;DHT22;11991;57.150;-2.134;2024-02-14T02:46:22;3.80;99.90
23629;DHT22;11991;57.150;-2.134;2024-02-14T02:48:49;3.80;99.90
23629;DHT22;11991;57.150;-2.134;2024-02-14T02:51:17;3.80;99.90
23629;DHT22;11991;57.150;-2.134;2024-02-14T02:53:45;3.80;99.90
23629;DHT22;11991;57.150;-2.134;2024-02-14T02:56:12;3.80;99.90
23629;DHT22;11991;57.150;-2.134;2024-02-14T02:58:40;3.80;99.90
23629;DHT22;11991;57.150;-2.134;2024-02-14T03:01:10;3.80;99.90
23629;DHT22;11991;57.150;-2.134;2024-02-14T03:03:39;3.90;99.90
23629;DHT22;11991;57.150;-2.134;2024-02-14T03:06:06;3.90;99.90
23629;DHT22;11991;57.150;-2.134;2024-02-14T03:08:33;3.90;99.90
23629;DHT22;11991;57.150;-2.134;2024-02-14T03:11:05;3.90;99.90
23629;DHT22;11991;57.150;-2.134;2024-02-14T03:13:33;3.90;99.90
23629;DHT22;11991;57.150;-2.134;2024-02-14T03:16:00;3.90;99.90
23629;DHT22;11991;57.150;-2.134;2024-02-14T03:18:27;3.90;99.90
23629;DHT22;11991;57.150;-2.134;2024-02-14T03:20:55;3.90;99.90
23629;DHT22;11991;57.150;-2.134;2024-02-14T03:23:23;3.90;99.90
23629;DHT22;11991;57.150;-2.134;2024-02-14T03:25:50;3.90;99.90
23629;DHT22;11991;57.150;-2.134;2024-02-14T03:28:18;3.90;99.90
23629;DHT22;11991;57.150;-2.134;2024-02-14T03:30:46;3.80;99.90
23629;DHT22;11991;57.150;-2.134;2024-02-14T03:33:14;3.90;99.90
23629;DHT22;11991;57.150;-2.134;2024-02-14T03:35:42;3.80;99.90
23629;DHT22;11991;57.150;-2.134;2024-02-14T03:38:09;3.80;99.90
23629;DHT22;11991;57.150;-2.134;2024-02-14T03:40:36;3.80;99.90
23629;DHT22;11991;57.150;-2.134;2024-02-14T03:43:05;3.70;99.90
23629;DHT22;11991;57.150;-2.134;2024-02-14T03:45:32;3.70;99.90
23629;DHT22;11991;57.150;-2.134;2024-02-14T03:47:59;3.60;99.90
23629;DHT22;11991;57.150;-2.134;2024-02-14T03:50:27;3.50;99.90
23629;DHT22;11991;57.150;-2.134;2024-02-14T03:52:54;3.50;99.90
23629;DHT22;11991;57.150;-2.134;2024-02-14T03:55:22;3.40;99.90
23629;DHT22;11991;57.150;-2.134;2024-02-14T03:57:50;3.40;99.90
23629;DHT22;11991;57.150;-2.134;2024-02-14T04:00:18;3.30;99.90
23629;DHT22;11991;57.150;-2.134;2024-02-14T04:02:45;3.30;99.90
23629;DHT22;11991;57.150;-2.134;2024-02-14T04:05:16;3.20;99.90
23629;DHT22;11991;57.150;-2.134;2024-02-14T04:07:43;3.20;99.90
23629;DHT22;11991;57.150;-2.134;2024-02-14T04:10:16;3.10;99.90
23629;DHT22;11991;57.150;-2.134;2024-02-14T04:12:43;3.00;99.90
23629;DHT22;11991;57.150;-2.134;2024-02-14T04:15:11;3.00;99.90
23629;DHT22;11991;57.150;-2.134;2024-02-14T04:17:41;2.90;99.90
23629;DHT22;11991;57.150;-2.134;2024-02-14T04:20:09;2.90;99.90
23629;DHT22;11991;57.150;-2.134;2024-02-14T04:22:36;2.90;99.90
23629;DHT22;11991;57.150;-2.134;2024-02-14T04:25:04;2.80;99.90
23629;DHT22;11991;57.150;-2.134;2024-02-14T04:27:31;2.80;99.90
23629;DHT22;11991;57.150;-2.134;2024-02-14T04:29:59;2.70;99.90
23629;DHT22;11991;57.150;-2.134;2024-02-14T04:32:26;2.70;99.90
23629;DHT22;11991;57.150;-2.134;2024-02-14T04:34:54;2.70;99.90
23629;DHT22;11991;57.150;-2.134;2024-02-14T04:37:21;2.70;99.90
23629;DHT22;11991;57.150;-2.134;2024-02-14T04:39:48;2.70;99.90
23629;DHT22;11991;57.150;-2.134;2024-02-14T04:42:16;2.60;99.90
23629;DHT22;11991;57.150;-2.134;2024-02-14T04:44:43;2.60;99.90
23629;DHT22;11991;57.150;-2.134;2024-02-14T04:47:10;2.60;99.90
23629;DHT22;11991;57.150;-2.134;2024-02-14T04:49:37;2.60;99.90
23629;DHT22;11991;57.150;-2.134;2024-02-14T04:52:05;2.60;99.90
23629;DHT22;11991;57.150;-2.134;2024-02-14T04:54:34;2.60;99.90
23629;DHT22;11991;57.150;-2.134;2024-02-14T04:57:01;2.60;99.90
23629;DHT22;11991;57.150;-2.134;2024-02-14T04:59:30;2.60;99.90
23629;DHT22;11991;57.150;-2.134;2024-02-14T05:01:58;2.60;99.90
23629;DHT22;11991;57.150;-2.134;2024-02-14T05:04:25;2.60;99.90
23629;DHT22;11991;57.150;-2.134;2024-02-14T05:06:53;2.60;99.90
23629;DHT22;11991;57.150;-2.134;2024-02-14T05:09:25;2.70;99.90
23629;DHT22;11991;57.150;-2.134;2024-02-14T05:11:52;2.80;99.90
23629;DHT22;11991;57.150;-2.134;2024-02-14T05:14:20;2.90;99.90
23629;DHT22;11991;57.150;-2.134;2024-02-14T05:16:47;2.90;99.90
23629;DHT22;11991;57.150;-2.134;2024-02-14T05:19:14;3.00;99.90
23629;DHT22;11991;57.150;-2.134;2024-02-14T05:21:41;3.10;99.90
23629;DHT22;11991;57.150;-2.134;2024-02-14T05:24:09;3.10;99.90
23629;DHT22;11991;57.150;-2.134;2024-02-14T05:26:36;3.10;99.90
23629;DHT22;11991;57.150;-2.134;2024-02-14T05:29:04;3.10;99.90
23629;DHT22;11991;57.150;-2.134;2024-02-14T05:31:46;3.10;99.90
23629;DHT22;11991;57.150;-2.134;2024-02-14T05:34:14;3.10;99.90
23629;DHT22;11991;57.150;-2.134;2024-02-14T05:36:42;3.10;99.90
23629;DHT22;11991;57.150;-2.134;2024-02-14T05:39:09;3.10;99.90
23629;DHT22;11991;57.150;-2.134;2024-02-14T05:41:37;3.00;99.90
23629;DHT22;11991;57.150;-2.134;2024-02-14T05:44:04;3.00;99.90
23629;DHT22;11991;57.150;-2.134;2024-02-14T05:46:31;3.00;99.90
23629;DHT22;11991;57.150;-2.134;2024-02-14T05:48:59;3.00;99.90
23629;DHT22;11991;57.150;-2.134;2024-02-14T05:51:26;3.00;99.90
23629;DHT22;11991;57.150;-2.134;2024-02-14T05:53:53;3.00;99.90
23629;DHT22;11991;57.150;-2.134;2024-02-14T05:56:21;3.00;99.90
23629;DHT22;11991;57.150;-2.134;2024-02-14T05:58:48;3.00;99.90
23629;DHT22;11991;57.150;-2.134;2024-02-14T06:01:15;3.00;99.90
23629;DHT22;11991;57.150;-2.134;2024-02-14T06:03:43;3.00;99.90
23629;DHT22;11991;57.150;-2.134;2024-02-14T06:06:10;3.00;99.90
23629;DHT22;11991;57.150;-2.134;2024-02-14T06:08:38;3.00;99.90
23629;DHT22;11991;57.150;-2.134;2024-02-14T06:11:05;3.00;99.90
23629;DHT22;11991;57.150;-2.134;2024-02-14T06:13:34;3.00;99.90
23629;DHT22;11991;57.150;-2.134;2024-02-14T06:16:03;3.10;99.90
23629;DHT22;11991;57.150;-2.134;2024-02-14T06:18:30;3.10;99.90
23629;DHT22;11991;57.150;-2.134;2024-02-14T06:20:57;3.20;99.90
23629;DHT22;11991;57.150;-2.134;2024-02-14T06:23:25;3.20;99.90
23629;DHT22;11991;57.150;-2.134;2024-02-14T06:25:52;3.20;99.90
23629;DHT22;11991;57.150;-2.134;2024-02-14T06:28:20;3.10;99.90
23629;DHT22;11991;57.150;-2.134;2024-02-14T06:30:47;3.10;99.90
23629;DHT22;11991;57.150;-2.134;2024-02-14T06:33:15;3.10;99.90
23629;DHT22;11991;57.150;-2.134;2024-02-14T06:35:42;3.10;99.90
23629;DHT22;11991;57.150;-2.134;2024-02-14T06:38:10;3.10;99.90
23629;DHT22;11991;57.150;-2.134;2024-02-14T06:40:37;3.00;99.90
23629;DHT22;11991;57.150;-2.134;2024-02-14T06:43:04;2.90;99.90
23629;DHT22;11991;57.150;-2.134;2024-02-14T06:45:33;2.90;99.90
23629;DHT22;11991;57.150;-2.134;2024-02-14T06:48:00;2.90;99.90
23629;DHT22;11991;57.150;-2.134;2024-02-14T06:50:28;2.90;99.90
23629;DHT22;11991;57.150;-2.134;2024-02-14T06:52:56;2.90;99.90
23629;DHT22;11991;57.150;-2.134;2024-02-14T06:55:28;2.90;99.90
23629;DHT22;11991;57.150;-2.134;2024-02-14T06:57:58;2.90;99.90
23629;DHT22;11991;57.150;-2.134;2024-02-14T07:00:25;2.90;99.90
23629;DHT22;11991;57.150;-2.134;2024-02-14T07:02:53;2.90;99.90
23629;DHT22;11991;57.150;-2.134;2024-02-14T07:05:20;2.90;99.90
23629;DHT22;11991;57.150;-2.134;2024-02-14T07:07:48;2.90;99.90
23629;DHT22;11991;57.150;-2.134;2024-02-14T07:10:15;2.90;99.90
23629;DHT22;11991;57.150;-2.134;2024-02-14T07:12:42;2.90;99.90
23629;DHT22;11991;57.150;-2.134;2024-02-14T07:15:10;2.90;99.90
23629;DHT22;11991;57.150;-2.134;2024-02-14T07:17:38;2.90;99.90
23629;DHT22;11991;57.150;-2.134;2024-02-14T07:20:06;2.90;99.90
23629;DHT22;11991;57.150;-2.134;2024-02-14T07:22:36;3.00;99.90
23629;DHT22;11991;57.150;-2.134;2024-02-14T07:25:04;3.00;99.90
23629;DHT22;11991;57.150;-2.134;2024-02-14T07:27:32;3.00;99.90
23629;DHT22;11991;57.150;-2.134;2024-02-14T07:29:59;3.00;99.90
23629;DHT22;11991;57.150;-2.134;2024-02-14T07:32:26;3.00;99.90
23629;DHT22;11991;57.150;-2.134;2024-02-14T07:34:55;3.00;99.90
23629;DHT22;11991;57.150;-2.134;2024-02-14T07:37:22;3.00;99.90
23629;DHT22;11991;57.150;-2.134;2024-02-14T07:39:49;2.90;99.90
23629;DHT22;11991;57.150;-2.134;2024-02-14T07:42:16;2.90;99.90
23629;DHT22;11991;57.150;-2.134;2024-02-14T07:44:43;2.90;99.90
23629;DHT22;11991;57.150;-2.134;2024-02-14T07:47:11;3.00;99.90
23629;DHT22;11991;57.150;-2.134;2024-02-14T07:49:39;3.00;99.90
23629;DHT22;11991;57.150;-2.134;2024-02-14T07:52:06;3.00;99.90
23629;DHT22;11991;57.150;-2.134;2024-02-14T07:54:33;3.00;99.90
23629;DHT22;11991;57.150;-2.134;2024-02-14T07:57:01;3.00;99.90
23629;DHT22;11991;57.150;-2.134;2024-02-14T07:59:28;3.10;99.90
23629;DHT22;11991;57.150;-2.134;2024-02-14T08:01:57;3.10;99.90
23629;DHT22;11991;57.150;-2.134;2024-02-14T08:04:25;3.00;99.90
23629;DHT22;11991;57.150;-2.134;2024-02-14T08:06:52;3.00;99.90
23629;DHT22;11991;57.150;-2.134;2024-02-14T08:09:20;3.10;99.90
23629;DHT22;11991;57.150;-2.134;2024-02-14T08:11:47;3.10;99.90
23629;DHT22;11991;57.150;-2.134;2024-02-14T08:14:14;3.20;99.90
23629;DHT22;11991;57.150;-2.134;2024-02-14T08:16:41;3.20;99.90
23629;DHT22;11991;57.150;-2.134;2024-02-14T08:19:09;3.20;99.90
23629;DHT22;11991;57.150;-2.134;2024-02-14T08:21:36;3.20;99.90
23629;DHT22;11991;57.150;-2.134;2024-02-14T08:24:03;3.20;99.90
23629;DHT22;11991;57.150;-2.134;2024-02-14T08:26:32;3.20;99.90
23629;DHT22;11991;57.150;-2.134;2024-02-14T08:28:59;3.20;99.90
23629;DHT22;11991;57.150;-2.134;2024-02-14T08:31:27;3.30;99.90
23629;DHT22;11991;57.150;-2.134;2024-02-14T08:33:54;3.30;99.90
23629;DHT22;11991;57.150;-2.134;2024-02-14T08:36:22;3.30;99.90
23629;DHT22;11991;57.150;-2.134;2024-02-14T08:38:49;3.30;99.90
23629;DHT22;11991;57.150;-2.134;2024-02-14T08:41:17;3.30;99.90
23629;DHT22;11991;57.150;-2.134;2024-02-14T08:43:45;3.30;99.90
23629;DHT22;11991;57.150;-2.134;2024-02-14T08:46:14;3.30;99.90
23629;DHT22;11991;57.150;-2.134;2024-02-14T08:48:42;3.30;99.90
23629;DHT22;11991;57.150;-2.134;2024-02-14T08:51:16;3.30;99.90
23629;DHT22;11991;57.150;-2.134;2024-02-14T08:53:44;3.40;99.90
23629;DHT22;11991;57.150;-2.134;2024-02-14T08:56:13;3.40;99.90
23629;DHT22;11991;57.150;-2.134;2024-02-14T08:58:41;3.40;99.90
23629;DHT22;11991;57.150;-2.134;2024-02-14T09:01:08;3.50;99.90
23629;DHT22;11991;57.150;-2.134;2024-02-14T09:03:45;3.50;99.90
23629;DHT22;11991;57.150;-2.134;2024-02-14T09:06:17;3.50;99.90
23629;DHT22;11991;57.150;-2.134;2024-02-14T09:08:46;3.60;99.90
23629;DHT22;11991;57.150;-2.134;2024-02-14T09:11:13;3.60;99.90
23629;DHT22;11991;57.150;-2.134;2024-02-14T09:13:41;3.60;99.90
23629;DHT22;11991;57.150;-2.134;2024-02-14T09:16:09;3.60;99.90
23629;DHT22;11991;57.150;-2.134;2024-02-14T09:18:37;3.70;99.90
23629;DHT22;11991;57.150;-2.134;2024-02-14T09:21:04;3.70;99.90
23629;DHT22;11991;57.150;-2.134;2024-02-14T09:23:33;3.80;99.90
23629;DHT22;11991;57.150;-2.134;2024-02-14T09:26:01;3.80;99.90
23629;DHT22;11991;57.150;-2.134;2024-02-14T09:28:29;3.80;99.90
23629;DHT22;11991;57.150;-2.134;2024-02-14T09:30:56;3.90;99.90
23629;DHT22;11991;57.150;-2.134;2024-02-14T09:33:24;4.00;99.90
23629;DHT22;11991;57.150;-2.134;2024-02-14T09:35:52;4.00;99.90
23629;DHT22;11991;57.150;-2.134;2024-02-14T09:38:20;4.10;99.90
23629;DHT22;11991;57.150;-2.134;2024-02-14T09:40:50;4.10;99.90
23629;DHT22;11991;57.150;-2.134;2024-02-14T09:43:45;4.10;99.90
23629;DHT22;11991;57.150;-2.134;2024-02-14T09:46:14;4.10;99.90
23629;DHT22;11991;57.150;-2.134;2024-02-14T09:48:50;4.20;99.90
23629;DHT22;11991;57.150;-2.134;2024-02-14T09:51:19;4.20;99.90
23629;DHT22;11991;57.150;-2.134;2024-02-14T09:53:46;4.30;99.90
23629;DHT22;11991;57.150;-2.134;2024-02-14T09:56:15;4.30;99.90
23629;DHT22;11991;57.150;-2.134;2024-02-14T09:58:46;4.40;99.90
23629;DHT22;11991;57.150;-2.134;2024-02-14T10:01:17;4.40;99.90
23629;DHT22;11991;57.150;-2.134;2024-02-14T10:03:46;4.40;99.90
23629;DHT22;11991;57.150;-2.134;2024-02-14T10:06:13;4.50;99.90
23629;DHT22;11991;57.150;-2.134;2024-02-14T10:08:41;4.50;99.90
23629;DHT22;11991;57.150;-2.134;2024-02-14T10:11:21;4.50;99.90
23629;DHT22;11991;57.150;-2.134;2024-02-14T10:13:50;4.60;99.90
23629;DHT22;11991;57.150;-2.134;2024-02-14T10:16:18;4.60;99.90
23629;DHT22;11991;57.150;-2.134;2024-02-14T10:18:49;4.70;99.90
23629;DHT22;11991;57.150;-2.134;2024-02-14T10:21:17;4.70;99.90
23629;DHT22;11991;57.150;-2.134;2024-02-14T10:23:46;4.80;99.90
23629;DHT22;11991;57.150;-2.134;2024-02-14T10:26:16;4.80;99.90
23629;DHT22;11991;57.150;-2.134;2024-02-14T10:28:44;4.80;99.90
23629;DHT22;11991;57.150;-2.134;2024-02-14T10:31:16;4.90;99.90
23629;DHT22;11991;57.150;-2.134;2024-02-14T10:33:43;4.90;99.90
23629;DHT22;11991;57.150;-2.134;2024-02-14T10:36:12;5.00;99.90
23629;DHT22;11991;57.150;-2.134;2024-02-14T10:38:41;4.90;99.90
23629;DHT22;11991;57.150;-2.134;2024-02-14T10:41:09;5.00;99.90
23629;DHT22;11991;57.150;-2.134;2024-02-14T10:43:40;5.00;99.90
23629;DHT22;11991;57.150;-2.134;2024-02-14T10:46:20;5.00;99.90
23629;DHT22;11991;57.150;-2.134;2024-02-14T10:48:56;5.10;99.90
23629;DHT22;11991;57.150;-2.134;2024-02-14T10:51:29;5.10;99.90
23629;DHT22;11991;57.150;-2.134;2024-02-14T10:53:58;5.10;99.90
23629;DHT22;11991;57.150;-2.134;2024-02-14T10:56:29;5.10;99.90
23629;DHT22;11991;57.150;-2.134;2024-02-14T10:59:03;5.20;99.90
23629;DHT22;11991;57.150;-2.134;2024-02-14T11:01:31;5.20;99.90
23629;DHT22;11991;57.150;-2.134;2024-02-14T11:04:00;5.20;99.90
23629;DHT22;11991;57.150;-2.134;2024-02-14T11:06:28;5.20;99.90
23629;DHT22;11991;57.150;-2.134;2024-02-14T11:09:03;5.30;99.90
23629;DHT22;11991;57.150;-2.134;2024-02-14T11:11:35;5.30;99.90
23629;DHT22;11991;57.150;-2.134;2024-02-14T11:14:02;5.30;99.90
23629;DHT22;11991;57.150;-2.134;2024-02-14T11:16:31;5.40;99.90
23629;DHT22;11991;57.150;-2.134;2024-02-14T11:19:10;5.40;99.90
23629;DHT22;11991;57.150;-2.134;2024-02-14T11:21:45;5.50;99.90
23629;DHT22;11991;57.150;-2.134;2024-02-14T11:24:15;5.50;99.90
23629;DHT22;11991;57.150;-2.134;2024-02-14T11:26:50;5.50;99.90
23629;DHT22;11991;57.150;-2.134;2024-02-14T11:29:19;5.60;99.90
23629;DHT22;11991;57.150;-2.134;2024-02-14T11:32:01;5.60;99.90
23629;DHT22;11991;57.150;-2.134;2024-02-14T11:34:29;5.60;99.90
23629;DHT22;11991;57.150;-2.134;2024-02-14T11:37:04;5.60;99.90
23629;DHT22;11991;57.150;-2.134;2024-02-14T11:39:34;5.70;99.90
23629;DHT22;11991;57.150;-2.134;2024-02-14T11:42:01;5.60;99.90
23629;DHT22;11991;57.150;-2.134;2024-02-14T11:44:29;5.70;99.90
23629;DHT22;11991;57.150;-2.134;2024-02-14T11:46:57;5.70;99.90
23629;DHT22;11991;57.150;-2.134;2024-02-14T11:49:24;5.70;99.90
23629;DHT22;11991;57.150;-2.134;2024-02-14T11:51:53;5.80;99.90
23629;DHT22;11991;57.150;-2.134;2024-02-14T11:54:20;5.80;99.90
23629;DHT22;11991;57.150;-2.134;2024-02-14T11:56:47;5.90;99.90
23629;DHT22;11991;57.150;-2.134;2024-02-14T11:59:16;5.90;99.90
23629;DHT22;11991;57.150;-2.134;2024-02-14T12:01:47;5.90;99.90
23629;DHT22;11991;57.150;-2.134;2024-02-14T12:04:15;5.90;99.90
23629;DHT22;11991;57.150;-2.134;2024-02-14T12:06:43;6.00;99.90
23629;DHT22;11991;57.150;-2.134;2024-02-14T12:09:11;6.10;99.90
23629;DHT22;11991;57.150;-2.134;2024-02-14T12:11:41;6.20;99.90
23629;DHT22;11991;57.150;-2.134;2024-02-14T12:14:10;6.20;99.90
23629;DHT22;11991;57.150;-2.134;2024-02-14T12:16:38;6.30;99.90
23629;DHT22;11991;57.150;-2.134;2024-02-14T12:19:09;6.30;99.90
23629;DHT22;11991;57.150;-2.134;2024-02-14T12:21:42;6.40;99.90
23629;DHT22;11991;57.150;-2.134;2024-02-14T12:24:13;6.40;99.90
23629;DHT22;11991;57.150;-2.134;2024-02-14T12:26:42;6.40;99.90
23629;DHT22;11991;57.150;-2.134;2024-02-14T12:29:11;6.50;99.90
23629;DHT22;11991;57.150;-2.134;2024-02-14T12:31:40;6.50;99.90
23629;DHT22;11991;57.150;-2.134;2024-02-14T12:34:11;6.40;99.90
23629;DHT22;11991;57.150;-2.134;2024-02-14T12:36:38;6.50;99.90
23629;DHT22;11991;57.150;-2.134;2024-02-14T12:39:06;6.50;99.90
23629;DHT22;11991;57.150;-2.134;2024-02-14T12:41:33;6.40;99.90
23629;DHT22;11991;57.150;-2.134;2024-02-14T12:44:02;6.50;99.90
23629;DHT22;11991;57.150;-2.134;2024-02-14T12:46:30;6.40;99.90
23629;DHT22;11991;57.150;-2.134;2024-02-14T12:48:57;6.50;99.90
23629;DHT22;11991;57.150;-2.134;2024-02-14T12:51:25;6.50;99.90
23629;DHT22;11991;57.150;-2.134;2024-02-14T12:53:56;6.50;99.90
23629;DHT22;11991;57.150;-2.134;2024-02-14T12:56:23;6.50;99.90
23629;DHT22;11991;57.150;-2.134;2024-02-14T12:58:52;6.50;99.90
23629;DHT22;11991;57.150;-2.134;2024-02-14T13:01:19;6.50;99.90
23629;DHT22;11991;57.150;-2.134;2024-02-14T13:03:46;6.50;99.90
23629;DHT22;11991;57.150;-2.134;2024-02-14T13:06:14;6.40;99.90
23629;DHT22;11991;57.150;-2.134;2024-02-14T13:08:41;6.40;99.90
23629;DHT22;11991;57.150;-2.134;2024-02-14T13:11:09;6.40;99.90
23629;DHT22;11991;57.150;-2.134;2024-02-14T13:13:36;6.40;99.90
23629;DHT22;11991;57.150;-2.134;2024-02-14T13:16:04;6.40;99.90
23629;DHT22;11991;57.150;-2.134;2024-02-14T13:18:34;6.40;99.90
23629;DHT22;11991;57.150;-2.134;2024-02-14T13:21:03;6.40;99.90
23629;DHT22;11991;57.150;-2.134;2024-02-14T13:23:30;6.40;99.90
23629;DHT22;11991;57.150;-2.134;2024-02-14T13:25:58;6.40;99.90
23629;DHT22;11991;57.150;-2.134;2024-02-14T13:28:25;6.50;99.90
23629;DHT22;11991;57.150;-2.134;2024-02-14T13:30:52;6.50;99.90
23629;DHT22;11991;57.150;-2.134;2024-02-14T13:33:23;6.50;99.90
23629;DHT22;11991;57.150;-2.134;2024-02-14T13:35:51;6.50;99.90
23629;DHT22;11991;57.150;-2.134;2024-02-14T13:38:18;6.60;99.90
23629;DHT22;11991;57.150;-2.134;2024-02-14T13:40:45;6.60;99.90
23629;DHT22;11991;57.150;-2.134;2024-02-14T13:43:13;6.60;99.90
23629;DHT22;11991;57.150;-2.134;2024-02-14T13:45:45;6.60;99.90
23629;DHT22;11991;57.150;-2.134;2024-02-14T13:48:14;6.70;99.90
23629;DHT22;11991;57.150;-2.134;2024-02-14T13:50:42;6.70;99.90
23629;DHT22;11991;57.150;-2.134;2024-02-14T13:53:10;6.70;99.90
23629;DHT22;11991;57.150;-2.134;2024-02-14T13:55:38;6.70;99.90
23629;DHT22;11991;57.150;-2.134;2024-02-14T13:58:06;6.70;99.90
23629;DHT22;11991;57.150;-2.134;2024-02-14T14:00:38;6.80;99.90
23629;DHT22;11991;57.150;-2.134;2024-02-14T14:03:05;6.80;99.90
23629;DHT22;11991;57.150;-2.134;2024-02-14T14:05:32;6.80;99.90
23629;DHT22;11991;57.150;-2.134;2024-02-14T14:08:00;6.80;99.90
23629;DHT22;11991;57.150;-2.134;2024-02-14T14:10:27;6.80;99.90
23629;DHT22;11991;57.150;-2.134;2024-02-14T14:12:57;6.80;99.90
23629;DHT22;11991;57.150;-2.134;2024-02-14T14:15:24;6.80;99.90
23629;DHT22;11991;57.150;-2.134;2024-02-14T14:17:53;6.90;99.90
23629;DHT22;11991;57.150;-2.134;2024-02-14T14:20:21;6.90;99.90
23629;DHT22;11991;57.150;-2.134;2024-02-14T14:22:48;6.90;99.90
23629;DHT22;11991;57.150;-2.134;2024-02-14T14:25:15;6.90;99.90
23629;DHT22;11991;57.150;-2.134;2024-02-14T14:27:45;6.90;99.90
23629;DHT22;11991;57.150;-2.134;2024-02-14T14:30:12;6.90;99.90
23629;DHT22;11991;57.150;-2.134;2024-02-14T14:32:40;6.90;99.90
23629;DHT22;11991;57.150;-2.134;2024-02-14T14:35:08;6.90;99.90
23629;DHT22;11991;57.150;-2.134;2024-02-14T14:37:38;6.90;99.90
23629;DHT22;11991;57.150;-2.134;2024-02-14T14:40:07;6.90;99.90
23629;DHT22;11991;57.150;-2.134;2024-02-14T14:42:36;6.90;99.90
23629;DHT22;11991;57.150;-2.134;2024-02-14T14:45:04;6.90;99.90
23629;DHT22;11991;57.150;-2.134;2024-02-14T14:47:32;6.90;99.90
23629;DHT22;11991;57.150;-2.134;2024-02-14T14:49:59;6.90;99.90
23629;DHT22;11991;57.150;-2.134;2024-02-14T14:52:27;7.00;99.90
23629;DHT22;11991;57.150;-2.134;2024-02-14T14:54:54;7.00;99.90
23629;DHT22;11991;57.150;-2.134;2024-02-14T14:57:21;7.00;99.90
23629;DHT22;11991;57.150;-2.134;2024-02-14T14:59:52;7.00;99.90
23629;DHT22;11991;57.150;-2.134;2024-02-14T15:02:20;7.00;99.90
23629;DHT22;11991;57.150;-2.134;2024-02-14T15:04:49;7.00;99.90
23629;DHT22;11991;57.150;-2.134;2024-02-14T15:07:18;7.00;99.90
23629;DHT22;11991;57.150;-2.134;2024-02-14T15:09:47;7.00;99.90
23629;DHT22;11991;57.150;-2.134;2024-02-14T15:12:14;7.00;99.90
23629;DHT22;11991;57.150;-2.134;2024-02-14T15:14:42;7.00;99.90
23629;DHT22;11991;57.150;-2.134;2024-02-14T15:17:09;7.00;99.90
23629;DHT22;11991;57.150;-2.134;2024-02-14T15:19:36;7.00;99.90
23629;DHT22;11991;57.150;-2.134;2024-02-14T15:22:03;7.00;99.90
23629;DHT22;11991;57.150;-2.134;2024-02-14T15:24:30;7.00;99.90
23629;DHT22;11991;57.150;-2.134;2024-02-14T15:26:58;7.00;99.90
23629;DHT22;11991;57.150;-2.134;2024-02-14T15:29:29;7.00;99.90
23629;DHT22;11991;57.150;-2.134;2024-02-14T15:32:16;7.10;99.90
23629;DHT22;11991;57.150;-2.134;2024-02-14T15:35:21;7.00;99.90
23629;DHT22;11991;57.150;-2.134;2024-02-14T15:37:49;7.00;99.90